createdAt,value
2017-10-13T14:39:44.409Z,72192
2017-10-13T14:40:44.441Z,72480
2017-10-13T14:41:44.477Z,75488
2017-10-13T14:42:44.506Z,73344
2017-10-13T14:43:44.926Z,71936
2017-10-13T14:44:44.577Z,69184
2017-10-13T14:45:44.606Z,62848
2017-10-13T14:46:44.650Z,62272
2017-10-13T14:47:44.698Z,56032
2017-10-13T14:48:47.664Z,38880
2017-10-13T14:49:48.714Z,19936
2017-10-13T14:50:48.153Z,7168
2017-10-13T14:51:47.690Z,5148
2017-10-13T14:52:46.970Z,4744
2017-10-13T14:53:44.889Z,4476
2017-10-13T14:54:44.921Z,4312
2017-10-13T14:55:45.285Z,4208
2017-10-13T14:56:45.320Z,4104
2017-10-13T14:57:45.022Z,4024
2017-10-13T14:58:45.094Z,3984
2017-10-13T14:59:45.086Z,3856
2017-10-13T15:00:45.118Z,3844
2017-10-13T15:01:45.157Z,3776
2017-10-13T15:02:45.233Z,3748
2017-10-13T15:03:45.236Z,3724
2017-10-13T15:04:45.261Z,3700
2017-10-13T15:05:45.954Z,3672
2017-10-13T15:06:45.337Z,3648
2017-10-13T15:07:45.395Z,3616
2017-10-13T15:08:45.378Z,3592
2017-10-13T15:09:45.404Z,3560
2017-10-13T15:10:45.443Z,3532
2017-10-13T15:11:45.605Z,3500
2017-10-13T15:12:45.506Z,3464
2017-10-13T15:13:45.530Z,3424
2017-10-13T15:14:45.564Z,3388
2017-10-13T15:15:45.588Z,3364
2017-10-13T15:16:45.629Z,3336
2017-10-13T15:17:45.650Z,3316
2017-10-13T15:18:45.680Z,3284
2017-10-13T15:19:45.705Z,3260
2017-10-13T15:20:45.740Z,3232
2017-10-13T15:21:45.779Z,3200
2017-10-13T15:22:45.796Z,3160
2017-10-13T15:23:46.282Z,3120
2017-10-13T15:24:45.855Z,3092
2017-10-13T15:25:45.890Z,3068
2017-10-13T15:26:45.913Z,3044
2017-10-13T15:27:45.966Z,3012
2017-10-13T15:28:45.970Z,2976
2017-10-13T15:29:46.325Z,2924
2017-10-13T15:30:46.026Z,2868
2017-10-13T15:31:46.054Z,2812
2017-10-13T15:32:46.082Z,2752
2017-10-13T15:33:46.120Z,2696
2017-10-13T15:34:46.464Z,2636
2017-10-13T15:35:46.165Z,2576
2017-10-13T15:36:46.519Z,2512
2017-10-13T15:37:46.242Z,2452
2017-10-13T15:38:46.252Z,2400
2017-10-13T15:39:46.286Z,2352
2017-10-13T15:40:46.352Z,2304
2017-10-13T15:41:46.389Z,2268
2017-10-13T15:42:46.361Z,2228
2017-10-13T15:43:46.389Z,2192
2017-10-13T15:44:46.422Z,2148
2017-10-13T15:45:46.452Z,2108
2017-10-13T15:46:46.472Z,2048
2017-10-13T15:47:46.502Z,1988
2017-10-13T15:48:46.533Z,1928
2017-10-13T15:49:46.560Z,1884
2017-10-13T15:50:46.585Z,1856
2017-10-13T15:51:46.662Z,1824
2017-10-13T15:52:46.655Z,1788
2017-10-13T15:53:46.668Z,1748
2017-10-13T15:54:46.711Z,1692
2017-10-13T15:55:47.064Z,1644
2017-10-13T15:56:46.794Z,1596
2017-10-13T15:57:46.781Z,1540
2017-10-13T15:58:46.817Z,1496
2017-10-13T15:59:46.837Z,1448
2017-10-13T16:00:47.211Z,1400
2017-10-13T16:01:47.222Z,1344
2017-10-13T16:02:47.235Z,1292
2017-10-13T16:03:46.932Z,1236
2017-10-13T16:04:46.968Z,1184
2017-10-13T16:05:46.993Z,1128
2017-10-13T16:06:47.019Z,1064
2017-10-13T16:07:47.042Z,1008
2017-10-13T16:08:47.400Z,1152
2017-10-13T16:09:47.100Z,1080
2017-10-13T16:10:47.126Z,1016
2017-10-13T16:11:47.146Z,948
2017-10-13T16:12:47.176Z,892
2017-10-13T16:13:47.200Z,856
2017-10-13T16:14:47.229Z,824
2017-10-13T16:15:47.259Z,800
2017-10-13T16:16:47.287Z,756
2017-10-13T16:17:47.311Z,712
2017-10-13T16:18:47.349Z,668
2017-10-13T16:19:47.363Z,628
2017-10-13T16:20:47.387Z,584
2017-10-13T16:21:47.410Z,540
2017-10-13T16:22:47.439Z,500
2017-10-13T16:23:47.466Z,464
2017-10-13T16:24:47.491Z,424
2017-10-13T16:25:47.518Z,388
2017-10-13T16:26:47.542Z,352
2017-10-13T16:27:47.574Z,320
2017-10-13T16:28:47.917Z,292
2017-10-13T16:29:47.625Z,268
2017-10-13T16:30:48.071Z,244
2017-10-13T16:31:47.721Z,228
2017-10-13T16:32:47.704Z,208
2017-10-13T16:33:47.721Z,188
2017-10-13T16:34:47.746Z,164
2017-10-13T16:35:47.776Z,144
2017-10-13T16:36:47.813Z,128
2017-10-13T16:37:47.817Z,112
2017-10-13T16:38:48.174Z,96
2017-10-13T16:39:47.866Z,88
2017-10-13T16:40:47.907Z,76
2017-10-13T16:41:47.919Z,64
2017-10-13T16:42:47.950Z,56
2017-10-13T16:43:47.968Z,48
2017-10-13T16:44:47.994Z,40
2017-10-13T16:45:48.029Z,32
2017-10-13T16:46:48.049Z,24
2017-10-13T16:47:48.077Z,24
2017-10-13T16:48:48.431Z,16
2017-10-13T16:49:48.125Z,16
2017-10-13T16:50:48.147Z,12
2017-10-13T16:51:48.164Z,12
2017-10-13T16:52:48.206Z,8
2017-10-13T16:53:48.220Z,8
2017-10-13T16:54:48.576Z,8
2017-10-13T16:55:48.615Z,4
2017-10-13T16:56:48.291Z,4
2017-10-13T16:57:48.316Z,4
2017-10-13T16:58:48.346Z,4
2017-10-13T16:59:48.371Z,0
2017-10-13T17:00:48.386Z,4
2017-10-13T17:01:48.772Z,4
2017-10-13T17:02:48.436Z,4
2017-10-13T17:03:48.562Z,0
2017-10-13T17:04:48.812Z,0
2017-10-13T17:05:48.517Z,0
2017-10-13T17:06:48.550Z,0
2017-10-13T17:07:48.563Z,0
2017-10-13T17:08:48.580Z,0
2017-10-13T17:09:48.672Z,0
2017-10-13T17:10:48.669Z,0
2017-10-13T17:11:48.656Z,0
2017-10-13T17:12:48.683Z,0
2017-10-13T17:13:48.701Z,0
2017-10-13T17:14:48.729Z,0
2017-10-13T17:15:48.755Z,0
2017-10-13T17:16:48.776Z,0
2017-10-13T17:17:49.122Z,0
2017-10-13T17:18:48.816Z,0
2017-10-13T17:19:48.864Z,0
2017-10-13T17:20:48.868Z,0
2017-10-13T17:21:48.892Z,0
2017-10-13T17:22:48.924Z,0
2017-10-13T17:23:48.943Z,0
2017-10-13T17:24:48.975Z,0
2017-10-13T17:25:48.998Z,4
2017-10-13T17:26:49.019Z,0
2017-10-13T17:27:49.064Z,0
2017-10-13T17:28:49.120Z,0
2017-10-13T17:29:49.089Z,0
2017-10-13T17:30:49.110Z,0
2017-10-13T17:31:49.132Z,0
2017-10-13T17:32:49.165Z,0
2017-10-13T17:33:49.191Z,0
2017-10-13T17:34:49.210Z,0
2017-10-13T17:35:49.235Z,0
2017-10-13T17:36:49.581Z,0
2017-10-13T17:37:49.607Z,0
2017-10-13T17:38:49.306Z,0
2017-10-13T17:39:49.333Z,0
2017-10-13T17:40:49.375Z,0
2017-10-13T17:41:49.377Z,0
2017-10-13T17:42:49.406Z,0
2017-10-13T17:43:49.507Z,0
2017-10-13T17:44:49.451Z,0
2017-10-13T17:45:49.474Z,0
2017-10-13T17:46:49.499Z,0
2017-10-13T17:47:49.519Z,0
2017-10-13T17:48:49.544Z,0
2017-10-13T17:49:49.571Z,0
2017-10-13T17:50:49.601Z,0
2017-10-13T17:51:49.613Z,0
2017-10-13T17:52:49.641Z,0
2017-10-13T17:53:49.666Z,0
2017-10-13T17:54:49.705Z,0
2017-10-13T17:55:49.713Z,0
2017-10-13T17:56:49.733Z,0
2017-10-13T17:57:49.755Z,0
2017-10-13T17:58:49.829Z,0
2017-10-13T17:59:49.804Z,0
2017-10-13T18:00:49.832Z,0
2017-10-13T18:01:49.855Z,0
2017-10-13T18:02:49.875Z,0
2017-10-13T18:03:49.901Z,0
2017-10-13T18:04:49.931Z,0
2017-10-13T18:05:49.956Z,0
2017-10-13T18:06:49.972Z,0
2017-10-13T18:07:49.991Z,0
2017-10-13T18:08:50.014Z,0
2017-10-13T18:09:50.041Z,0
2017-10-13T18:10:50.070Z,0
2017-10-13T18:11:50.091Z,0
2017-10-13T18:12:50.336Z,0
2017-10-13T18:13:50.135Z,0
2017-10-13T18:14:50.167Z,0
2017-10-13T18:15:50.513Z,0
2017-10-13T18:16:50.206Z,0
2017-10-13T18:17:50.226Z,0
2017-10-13T18:18:50.301Z,0
2017-10-13T18:19:50.280Z,0
2017-10-13T18:20:50.298Z,0
2017-10-13T18:21:50.321Z,0
2017-10-13T18:22:50.344Z,0
2017-10-13T18:23:50.371Z,0
2017-10-13T18:24:50.397Z,0
2017-10-13T18:25:50.412Z,0
2017-10-13T18:26:50.439Z,0
2017-10-13T18:27:50.475Z,0
2017-10-13T18:28:51.370Z,0
2017-10-13T18:29:50.838Z,0
2017-10-13T18:30:50.537Z,0
2017-10-13T18:31:50.552Z,0
2017-10-13T18:32:50.574Z,0
2017-10-13T18:33:50.601Z,0
2017-10-13T18:34:50.633Z,0
2017-10-13T18:35:50.657Z,0
2017-10-13T18:36:50.695Z,0
2017-10-13T18:37:50.748Z,0
2017-10-13T18:38:51.267Z,0
2017-10-13T18:39:50.741Z,0
2017-10-13T18:40:51.085Z,0
2017-10-13T18:41:50.787Z,0
2017-10-13T18:42:50.818Z,0
2017-10-13T18:43:50.855Z,0
2017-10-13T18:44:50.859Z,0
2017-10-13T18:45:50.877Z,0
2017-10-13T18:46:50.906Z,0
2017-10-13T18:47:50.924Z,0
2017-10-13T18:48:50.951Z,0
2017-10-13T18:49:50.970Z,0
2017-10-13T18:50:50.991Z,0
2017-10-13T18:51:51.337Z,0
2017-10-13T18:52:51.041Z,0
2017-10-13T18:53:51.058Z,0
2017-10-13T18:54:51.088Z,0
2017-10-13T18:55:51.111Z,0
2017-10-13T18:56:51.186Z,0
2017-10-13T18:57:51.157Z,0
2017-10-13T18:58:51.507Z,0
2017-10-13T18:59:51.193Z,0
2017-10-13T19:00:51.229Z,0
2017-10-13T19:01:51.240Z,0
2017-10-13T19:02:51.272Z,0
2017-10-13T19:03:51.288Z,0
2017-10-13T19:04:51.648Z,0
2017-10-13T19:05:51.335Z,0
2017-10-13T19:06:51.363Z,0
2017-10-13T19:07:51.740Z,0
2017-10-13T19:08:51.408Z,0
2017-10-13T19:09:51.424Z,0
2017-10-13T19:10:51.447Z,0
2017-10-13T19:11:51.466Z,0
2017-10-13T19:12:51.496Z,0
2017-10-13T19:13:51.540Z,0
2017-10-13T19:14:51.543Z,0
2017-10-13T19:15:51.565Z,0
2017-10-13T19:16:51.590Z,0
2017-10-13T19:17:51.618Z,0
2017-10-13T19:18:51.972Z,0
2017-10-13T19:19:51.985Z,0
2017-10-13T19:20:51.675Z,0
2017-10-13T19:21:51.699Z,0
2017-10-13T19:22:51.725Z,0
2017-10-13T19:23:51.746Z,0
2017-10-13T19:24:52.099Z,0
2017-10-13T19:25:51.790Z,0
2017-10-13T19:26:51.820Z,0
2017-10-13T19:27:51.836Z,0
2017-10-13T19:28:51.906Z,0
2017-10-13T19:29:51.877Z,0
2017-10-13T19:30:51.903Z,0
2017-10-13T19:31:51.954Z,0
2017-10-13T19:32:51.956Z,0
2017-10-13T19:33:51.988Z,0
2017-10-13T19:34:51.991Z,0
2017-10-13T19:35:52.014Z,0
2017-10-13T19:36:52.064Z,0
2017-10-13T19:37:52.094Z,0
2017-10-13T19:38:52.090Z,0
2017-10-13T19:39:52.126Z,0
2017-10-13T19:40:52.129Z,0
2017-10-13T19:41:52.384Z,0
2017-10-13T19:42:52.219Z,0
2017-10-13T19:43:52.201Z,0
2017-10-13T19:44:52.238Z,0
2017-10-13T19:45:52.238Z,0
2017-10-13T19:46:52.347Z,0
2017-10-13T19:47:52.681Z,0
2017-10-13T19:48:52.368Z,0
2017-10-13T19:49:52.345Z,0
2017-10-13T19:50:52.355Z,0
2017-10-13T19:51:52.422Z,0
2017-10-13T19:52:52.727Z,0
2017-10-13T19:53:52.426Z,0
2017-10-13T19:54:52.474Z,0
2017-10-13T19:55:52.471Z,0
2017-10-13T19:56:52.541Z,0
2017-10-13T19:57:52.511Z,0
2017-10-13T19:58:52.542Z,0
2017-10-13T19:59:52.557Z,0
2017-10-13T20:00:52.593Z,0
2017-10-13T20:01:52.623Z,0
2017-10-13T20:02:52.652Z,0
2017-10-13T20:03:52.668Z,0
2017-10-13T20:04:52.688Z,0
2017-10-13T20:05:52.702Z,0
2017-10-13T20:06:52.734Z,0
2017-10-13T20:07:53.100Z,0
2017-10-13T20:08:52.791Z,0
2017-10-13T20:09:52.785Z,0
2017-10-13T20:10:52.806Z,0
2017-10-13T20:11:52.880Z,0
2017-10-13T20:12:53.213Z,0
2017-10-13T20:13:53.225Z,0
2017-10-13T20:14:52.910Z,0
2017-10-13T20:15:52.936Z,0
2017-10-13T20:16:52.948Z,0
2017-10-13T20:17:52.962Z,0
2017-10-13T20:18:52.998Z,0
2017-10-13T20:19:53.009Z,0
2017-10-13T20:20:53.029Z,0
2017-10-13T20:21:53.377Z,0
2017-10-13T20:22:53.070Z,0
2017-10-13T20:23:53.110Z,0
2017-10-13T20:24:53.130Z,0
2017-10-13T20:25:53.176Z,0
2017-10-13T20:26:53.216Z,0
2017-10-13T20:27:53.188Z,0
2017-10-13T20:28:53.535Z,0
2017-10-13T20:29:53.582Z,0
2017-10-13T20:30:53.615Z,0
2017-10-13T20:31:53.599Z,0
2017-10-13T20:32:53.299Z,0
2017-10-13T20:33:53.327Z,0
2017-10-13T20:34:53.679Z,0
2017-10-13T20:35:53.364Z,0
2017-10-13T20:36:53.731Z,0
2017-10-13T20:37:53.416Z,0
2017-10-13T20:38:53.443Z,0
2017-10-13T20:39:53.447Z,0
2017-10-13T20:40:53.794Z,0
2017-10-13T20:41:53.499Z,0
2017-10-13T20:42:53.866Z,0
2017-10-13T20:43:53.553Z,0
2017-10-13T20:44:53.561Z,0
2017-10-13T20:45:53.585Z,0
2017-10-13T20:46:53.612Z,0
2017-10-13T20:47:53.633Z,0
2017-10-13T20:48:53.999Z,0
2017-10-13T20:49:53.670Z,0
2017-10-13T20:50:53.694Z,0
2017-10-13T20:51:53.733Z,0
2017-10-13T20:52:53.753Z,0
2017-10-13T20:53:54.088Z,0
2017-10-13T20:54:53.820Z,0
2017-10-13T20:55:54.136Z,0
2017-10-13T20:56:53.832Z,0
2017-10-13T20:57:53.868Z,0
2017-10-13T20:58:54.288Z,0
2017-10-13T20:59:53.911Z,0
2017-10-13T21:00:54.253Z,0
2017-10-13T21:01:53.940Z,0
2017-10-13T21:02:54.301Z,0
2017-10-13T21:03:53.988Z,0
2017-10-13T21:04:54.007Z,0
2017-10-13T21:05:54.037Z,0
2017-10-13T21:06:54.373Z,0
2017-10-13T21:07:54.078Z,0
2017-10-13T21:08:54.428Z,0
2017-10-13T21:09:54.121Z,0
2017-10-13T21:10:54.145Z,0
2017-10-13T21:11:54.181Z,0
2017-10-13T21:12:54.201Z,0
2017-10-13T21:13:54.551Z,0
2017-10-13T21:14:54.251Z,0
2017-10-13T21:15:54.261Z,0
2017-10-13T21:16:54.642Z,0
2017-10-13T21:17:54.359Z,0
2017-10-13T21:18:54.316Z,0
2017-10-13T21:19:54.345Z,0
2017-10-13T21:20:54.690Z,0
2017-10-13T21:21:54.396Z,0
2017-10-13T21:22:54.411Z,0
2017-10-13T21:23:54.430Z,0
2017-10-13T21:24:54.456Z,0
2017-10-13T21:25:54.472Z,0
2017-10-13T21:26:54.506Z,0
2017-10-13T21:27:54.529Z,0
2017-10-13T21:28:55.208Z,0
2017-10-13T21:29:54.562Z,0
2017-10-13T21:30:54.587Z,0
2017-10-13T21:31:54.617Z,0
2017-10-13T21:32:54.687Z,0
2017-10-13T21:33:54.659Z,0
2017-10-13T21:34:54.683Z,0
2017-10-13T21:35:54.697Z,0
2017-10-13T21:36:54.723Z,0
2017-10-13T21:37:54.743Z,0
2017-10-13T21:38:54.764Z,0
2017-10-13T21:39:54.783Z,0
2017-10-13T21:40:54.811Z,0
2017-10-13T21:41:54.853Z,0
2017-10-13T21:42:54.851Z,0
2017-10-13T21:43:54.876Z,0
2017-10-13T21:44:54.896Z,0
2017-10-13T21:45:54.922Z,0
2017-10-13T21:46:55.137Z,0
2017-10-13T21:47:54.963Z,0
2017-10-13T21:48:55.312Z,0
2017-10-13T21:49:55.008Z,0
2017-10-13T21:50:55.030Z,0
2017-10-13T21:51:55.097Z,0
2017-10-13T21:52:55.065Z,0
2017-10-13T21:53:55.087Z,0
2017-10-13T21:54:55.124Z,0
2017-10-13T21:55:55.134Z,0
2017-10-13T21:56:55.479Z,0
2017-10-13T21:57:55.187Z,0
2017-10-13T21:58:55.204Z,0
2017-10-13T21:59:55.229Z,0
2017-10-13T22:00:55.570Z,0
2017-10-13T22:01:55.267Z,0
2017-10-13T22:02:55.295Z,0
2017-10-13T22:03:55.313Z,0
2017-10-13T22:04:55.359Z,0
2017-10-13T22:05:55.349Z,0
2017-10-13T22:06:55.747Z,0
2017-10-13T22:07:55.398Z,0
2017-10-13T22:08:55.419Z,0
2017-10-13T22:09:55.438Z,0
2017-10-13T22:10:55.463Z,0
2017-10-13T22:11:55.482Z,0
2017-10-13T22:12:55.510Z,0
2017-10-13T22:13:55.526Z,0
2017-10-13T22:14:55.549Z,0
2017-10-13T22:15:55.571Z,0
2017-10-13T22:16:55.586Z,0
2017-10-13T22:17:55.615Z,0
2017-10-13T22:18:55.631Z,0
2017-10-13T22:19:55.656Z,0
2017-10-13T22:20:55.690Z,0
2017-10-13T22:21:55.699Z,0
2017-10-13T22:22:55.716Z,0
2017-10-13T22:23:55.742Z,0
2017-10-13T22:24:55.763Z,0
2017-10-13T22:25:55.789Z,0
2017-10-13T22:26:55.817Z,0
2017-10-13T22:27:55.836Z,0
2017-10-13T22:28:56.189Z,0
2017-10-13T22:29:55.869Z,0
2017-10-13T22:30:55.904Z,0
2017-10-13T22:31:55.916Z,0
2017-10-13T22:32:56.275Z,0
2017-10-13T22:33:55.962Z,0
2017-10-13T22:34:55.996Z,0
2017-10-13T22:35:55.997Z,0
2017-10-13T22:36:56.037Z,0
2017-10-13T22:37:56.046Z,0
2017-10-13T22:38:56.113Z,0
2017-10-13T22:39:56.415Z,0
2017-10-13T22:40:56.111Z,0
2017-10-13T22:41:56.125Z,0
2017-10-13T22:42:56.472Z,0
2017-10-13T22:43:56.193Z,0
2017-10-13T22:44:56.195Z,0
2017-10-13T22:45:56.220Z,0
2017-10-13T22:46:56.242Z,0
2017-10-13T22:47:56.263Z,0
2017-10-13T22:48:56.282Z,0
2017-10-13T22:49:56.322Z,0
2017-10-13T22:50:56.330Z,0
2017-10-13T22:51:56.345Z,0
2017-10-13T22:52:56.372Z,0
2017-10-13T22:53:56.446Z,0
2017-10-13T22:54:56.407Z,0
2017-10-13T22:55:56.435Z,0
2017-10-13T22:56:56.774Z,0
2017-10-13T22:57:56.480Z,0
2017-10-13T22:58:56.498Z,0
2017-10-13T22:59:56.840Z,0
2017-10-13T23:00:56.540Z,0
2017-10-13T23:01:56.557Z,0
2017-10-13T23:02:56.912Z,0
2017-10-13T23:03:56.601Z,0
2017-10-13T23:04:56.618Z,0
2017-10-13T23:05:56.649Z,0
2017-10-13T23:06:56.667Z,0
2017-10-13T23:07:56.689Z,0
2017-10-13T23:08:56.757Z,0
2017-10-13T23:09:56.730Z,0
2017-10-13T23:10:56.743Z,0
2017-10-13T23:11:57.109Z,0
2017-10-13T23:12:57.122Z,0
2017-10-13T23:13:56.811Z,0
2017-10-13T23:14:57.165Z,0
2017-10-13T23:15:56.855Z,0
2017-10-13T23:16:56.880Z,0
2017-10-13T23:17:56.895Z,0
2017-10-13T23:18:56.925Z,0
2017-10-13T23:19:56.940Z,0
2017-10-13T23:20:56.960Z,0
2017-10-13T23:21:56.992Z,0
2017-10-13T23:22:57.004Z,0
2017-10-13T23:23:57.077Z,0
2017-10-13T23:24:57.045Z,0
2017-10-13T23:25:57.065Z,0
2017-10-13T23:26:57.087Z,0
2017-10-13T23:27:57.116Z,0
2017-10-13T23:28:57.149Z,0
2017-10-13T23:29:57.151Z,0
2017-10-13T23:30:57.508Z,0
2017-10-13T23:31:57.191Z,0
2017-10-13T23:32:57.210Z,0
2017-10-13T23:33:57.239Z,0
2017-10-13T23:34:57.266Z,0
2017-10-13T23:35:57.272Z,0
2017-10-13T23:36:57.302Z,0
2017-10-13T23:37:57.315Z,0
2017-10-13T23:38:57.343Z,0
2017-10-13T23:39:57.685Z,0
2017-10-13T23:40:57.437Z,0
2017-10-13T23:41:57.400Z,0
2017-10-13T23:42:57.427Z,0
2017-10-13T23:43:57.447Z,0
2017-10-13T23:44:57.485Z,0
2017-10-13T23:45:57.488Z,0
2017-10-13T23:46:57.506Z,0
2017-10-13T23:47:57.529Z,0
2017-10-13T23:48:57.545Z,0
2017-10-13T23:49:57.572Z,0
2017-10-13T23:50:57.586Z,0
2017-10-13T23:51:57.942Z,0
2017-10-13T23:52:57.640Z,0
2017-10-13T23:53:57.653Z,0
2017-10-13T23:54:57.673Z,0
2017-10-13T23:55:57.694Z,0
2017-10-13T23:56:57.716Z,0
2017-10-13T23:57:57.734Z,0
2017-10-13T23:58:57.829Z,0
2017-10-13T23:59:57.781Z,0
